sensor_id;sensor_type;location;lat;lon;timestamp;pressure;altitude;pressure_sealevel;temperature;humidity
25510;BME280;13413;52.336;21.200;2023-05-23T00:01:32;100499.19;;;15.29;58.58
25510;BME280;13413;52.336;21.200;2023-05-23T00:04:25;100494.73;;;15.24;58.59
25510;BME280;13413;52.336;21.200;2023-05-23T00:07:17;100495.14;;;15.23;58.65
25510;BME280;13413;52.336;21.200;2023-05-23T00:10:10;100498.35;;;15.23;58.73
25510;BME280;13413;52.336;21.200;2023-05-23T00:13:02;100493.20;;;15.22;58.66
25510;BME280;13413;52.336;21.200;2023-05-23T00:15:55;100493.83;;;15.21;58.79
25510;BME280;13413;52.336;21.200;2023-05-23T00:18:48;100492.87;;;15.15;58.71
25510;BME280;13413;52.336;21.200;2023-05-23T00:21:40;100489.65;;;15.14;58.97
25510;BME280;13413;52.336;21.200;2023-05-23T00:24:33;100490.55;;;15.14;58.98
25510;BME280;13413;52.336;21.200;2023-05-23T00:27:25;100489.02;;;15.11;58.84
25510;BME280;13413;52.336;21.200;2023-05-23T00:30:17;100487.88;;;15.10;58.89
25510;BME280;13413;52.336;21.200;2023-05-23T00:33:09;100485.05;;;15.10;58.95
25510;BME280;13413;52.336;21.200;2023-05-23T00:36:01;100482.23;;;15.08;58.97
25510;BME280;13413;52.336;21.200;2023-05-23T00:38:53;100481.70;;;15.07;58.95
25510;BME280;13413;52.336;21.200;2023-05-23T00:41:46;100485.80;;;15.03;58.89
25510;BME280;13413;52.336;21.200;2023-05-23T00:44:38;100479.61;;;15.00;58.98
25510;BME280;13413;52.336;21.200;2023-05-23T00:50:22;100473.98;;;14.94;59.17
25510;BME280;13413;52.336;21.200;2023-05-23T00:53:14;100475.82;;;14.89;59.02
25510;BME280;13413;52.336;21.200;2023-05-23T00:56:06;100478.79;;;14.83;58.89
25510;BME280;13413;52.336;21.200;2023-05-23T00:59:00;100478.87;;;14.83;59.05
25510;BME280;13413;52.336;21.200;2023-05-23T01:01:53;100477.27;;;14.82;59.17
25510;BME280;13413;52.336;21.200;2023-05-23T01:04:47;100478.14;;;14.74;59.18
25510;BME280;13413;52.336;21.200;2023-05-23T01:07:41;100476.92;;;14.71;59.22
25510;BME280;13413;52.336;21.200;2023-05-23T01:10:33;100475.74;;;14.72;59.37
25510;BME280;13413;52.336;21.200;2023-05-23T01:13:27;100479.65;;;14.71;59.25
25510;BME280;13413;52.336;21.200;2023-05-23T01:16:26;100484.67;;;14.66;59.26
25510;BME280;13413;52.336;21.200;2023-05-23T01:19:27;100487.09;;;14.62;59.35
25510;BME280;13413;52.336;21.200;2023-05-23T01:22:26;100488.40;;;14.64;59.48
25510;BME280;13413;52.336;21.200;2023-05-23T01:25:27;100487.77;;;14.63;59.56
25510;BME280;13413;52.336;21.200;2023-05-23T01:28:20;100486.16;;;14.66;59.66
25510;BME280;13413;52.336;21.200;2023-05-23T01:31:14;100479.61;;;14.65;59.52
25510;BME280;13413;52.336;21.200;2023-05-23T01:43:09;100469.06;;;14.54;59.58
25510;BME280;13413;52.336;21.200;2023-05-23T01:46:02;100471.91;;;14.50;59.67
25510;BME280;13413;52.336;21.200;2023-05-23T01:48:55;100468.11;;;14.45;59.68
25510;BME280;13413;52.336;21.200;2023-05-23T01:51:48;100464.77;;;14.43;59.74
25510;BME280;13413;52.336;21.200;2023-05-23T01:54:41;100465.11;;;14.38;59.78
25510;BME280;13413;52.336;21.200;2023-05-23T01:57:34;100467.70;;;14.37;59.86
25510;BME280;13413;52.336;21.200;2023-05-23T02:00:27;100467.15;;;14.32;59.62
25510;BME280;13413;52.336;21.200;2023-05-23T02:03:19;100462.66;;;14.23;59.78
25510;BME280;13413;52.336;21.200;2023-05-23T02:06:11;100459.23;;;14.26;59.73
25510;BME280;13413;52.336;21.200;2023-05-23T02:09:03;100456.59;;;14.31;59.66
25510;BME280;13413;52.336;21.200;2023-05-23T02:11:55;100454.23;;;14.32;59.47
25510;BME280;13413;52.336;21.200;2023-05-23T02:14:50;100455.01;;;14.26;59.32
25510;BME280;13413;52.336;21.200;2023-05-23T02:17:42;100453.94;;;14.25;59.45
25510;BME280;13413;52.336;21.200;2023-05-23T02:20:34;100452.48;;;14.25;59.40
25510;BME280;13413;52.336;21.200;2023-05-23T02:23:26;100446.59;;;14.19;59.35
25510;BME280;13413;52.336;21.200;2023-05-23T02:26:18;100446.95;;;14.16;59.43
25510;BME280;13413;52.336;21.200;2023-05-23T02:29:10;100439.73;;;14.14;59.40
25510;BME280;13413;52.336;21.200;2023-05-23T02:32:02;100436.30;;;14.13;59.35
25510;BME280;13413;52.336;21.200;2023-05-23T02:34:54;100435.73;;;14.10;59.31
25510;BME280;13413;52.336;21.200;2023-05-23T02:37:46;100432.65;;;14.08;59.37
25510;BME280;13413;52.336;21.200;2023-05-23T02:40:38;100429.27;;;13.99;59.40
25510;BME280;13413;52.336;21.200;2023-05-23T02:43:30;100430.23;;;13.97;59.52
25510;BME280;13413;52.336;21.200;2023-05-23T02:46:22;100428.64;;;13.95;59.47
25510;BME280;13413;52.336;21.200;2023-05-23T02:49:14;100424.27;;;13.93;59.52
25510;BME280;13413;52.336;21.200;2023-05-23T02:52:06;100422.40;;;13.88;59.49
25510;BME280;13413;52.336;21.200;2023-05-23T02:54:59;100420.73;;;13.84;59.75
25510;BME280;13413;52.336;21.200;2023-05-23T02:57:52;100419.77;;;13.85;59.75
25510;BME280;13413;52.336;21.200;2023-05-23T03:00:45;100418.29;;;13.88;59.78
25510;BME280;13413;52.336;21.200;2023-05-23T03:03:37;100420.54;;;13.87;59.64
25510;BME280;13413;52.336;21.200;2023-05-23T03:06:29;100419.34;;;13.86;59.66
25510;BME280;13413;52.336;21.200;2023-05-23T03:09:21;100421.09;;;13.83;59.69
25510;BME280;13413;52.336;21.200;2023-05-23T03:12:14;100418.42;;;13.83;59.84
25510;BME280;13413;52.336;21.200;2023-05-23T03:15:07;100417.77;;;13.80;59.86
25510;BME280;13413;52.336;21.200;2023-05-23T03:18:00;100417.48;;;13.78;60.12
25510;BME280;13413;52.336;21.200;2023-05-23T03:20:52;100416.20;;;13.84;59.94
25510;BME280;13413;52.336;21.200;2023-05-23T03:23:45;100418.30;;;13.84;59.85
25510;BME280;13413;52.336;21.200;2023-05-23T03:26:37;100418.45;;;13.82;59.96
25510;BME280;13413;52.336;21.200;2023-05-23T03:29:29;100419.81;;;13.83;60.07
25510;BME280;13413;52.336;21.200;2023-05-23T03:32:21;100421.75;;;13.84;60.04
25510;BME280;13413;52.336;21.200;2023-05-23T03:35:13;100419.44;;;13.82;60.07
25510;BME280;13413;52.336;21.200;2023-05-23T03:38:06;100418.45;;;13.88;60.16
25510;BME280;13413;52.336;21.200;2023-05-23T03:40:58;100423.96;;;13.96;60.36
25510;BME280;13413;52.336;21.200;2023-05-23T03:43:50;100420.98;;;14.04;60.39
25510;BME280;13413;52.336;21.200;2023-05-23T03:46:42;100425.19;;;14.08;60.27
25510;BME280;13413;52.336;21.200;2023-05-23T03:49:35;100425.52;;;14.03;60.05
25510;BME280;13413;52.336;21.200;2023-05-23T03:52:28;100422.35;;;14.00;60.45
25510;BME280;13413;52.336;21.200;2023-05-23T03:55:20;100423.73;;;14.04;60.59
25510;BME280;13413;52.336;21.200;2023-05-23T04:03:48;100415.40;;;14.19;60.46
25510;BME280;13413;52.336;21.200;2023-05-23T04:06:40;100416.60;;;14.24;60.54
25510;BME280;13413;52.336;21.200;2023-05-23T04:09:32;100415.08;;;14.30;60.44
25510;BME280;13413;52.336;21.200;2023-05-23T04:12:24;100411.90;;;14.33;60.34
25510;BME280;13413;52.336;21.200;2023-05-23T04:15:17;100407.58;;;14.35;60.21
25510;BME280;13413;52.336;21.200;2023-05-23T04:18:09;100410.27;;;14.39;60.21
25510;BME280;13413;52.336;21.200;2023-05-23T04:21:01;100405.36;;;14.46;60.15
25510;BME280;13413;52.336;21.200;2023-05-23T04:23:54;100405.50;;;14.60;60.19
25510;BME280;13413;52.336;21.200;2023-05-23T04:26:46;100400.63;;;14.74;59.99
25510;BME280;13413;52.336;21.200;2023-05-23T04:29:39;100405.98;;;14.87;59.86
25510;BME280;13413;52.336;21.200;2023-05-23T04:32:32;100403.07;;;14.98;59.69
25510;BME280;13413;52.336;21.200;2023-05-23T04:35:24;100402.83;;;15.13;59.59
25510;BME280;13413;52.336;21.200;2023-05-23T04:38:17;100404.88;;;15.24;59.35
25510;BME280;13413;52.336;21.200;2023-05-23T04:41:09;100401.46;;;15.35;59.24
25510;BME280;13413;52.336;21.200;2023-05-23T04:44:02;100401.17;;;15.48;58.81
25510;BME280;13413;52.336;21.200;2023-05-23T04:46:55;100397.16;;;15.61;58.91
25510;BME280;13413;52.336;21.200;2023-05-23T04:49:48;100400.02;;;15.77;58.86
25510;BME280;13413;52.336;21.200;2023-05-23T04:52:40;100399.83;;;15.90;58.50
25510;BME280;13413;52.336;21.200;2023-05-23T04:55:32;100400.80;;;16.04;58.37
25510;BME280;13413;52.336;21.200;2023-05-23T04:58:26;100402.56;;;16.17;57.71
25510;BME280;13413;52.336;21.200;2023-05-23T05:01:18;100407.36;;;16.25;56.93
25510;BME280;13413;52.336;21.200;2023-05-23T05:04:11;100402.67;;;16.34;57.02
25510;BME280;13413;52.336;21.200;2023-05-23T05:07:04;100398.59;;;16.44;56.88
25510;BME280;13413;52.336;21.200;2023-05-23T05:09:56;100401.38;;;16.62;56.72
25510;BME280;13413;52.336;21.200;2023-05-23T05:12:49;100395.77;;;16.74;55.83
25510;BME280;13413;52.336;21.200;2023-05-23T05:15:41;100396.80;;;16.81;55.22
25510;BME280;13413;52.336;21.200;2023-05-23T05:18:34;100394.21;;;16.93;55.54
25510;BME280;13413;52.336;21.200;2023-05-23T05:21:26;100392.18;;;17.06;55.43
25510;BME280;13413;52.336;21.200;2023-05-23T05:27:12;100389.55;;;17.32;54.77
25510;BME280;13413;52.336;21.200;2023-05-23T05:30:05;100391.14;;;17.40;54.41
25510;BME280;13413;52.336;21.200;2023-05-23T05:32:58;100382.82;;;17.54;54.80
25510;BME280;13413;52.336;21.200;2023-05-23T05:35:50;100380.56;;;17.72;54.92
25510;BME280;13413;52.336;21.200;2023-05-23T05:38:42;100382.32;;;17.87;54.02
25510;BME280;13413;52.336;21.200;2023-05-23T05:41:34;100386.02;;;18.01;54.36
25510;BME280;13413;52.336;21.200;2023-05-23T05:44:26;100388.45;;;18.15;54.39
25510;BME280;13413;52.336;21.200;2023-05-23T05:47:18;100390.69;;;18.36;54.45
25510;BME280;13413;52.336;21.200;2023-05-23T05:50:12;100392.69;;;18.59;53.95
25510;BME280;13413;52.336;21.200;2023-05-23T05:53:04;100390.30;;;18.81;53.35
25510;BME280;13413;52.336;21.200;2023-05-23T05:55:56;100387.91;;;18.86;53.05
25510;BME280;13413;52.336;21.200;2023-05-23T05:58:48;100385.95;;;18.93;52.91
25510;BME280;13413;52.336;21.200;2023-05-23T06:01:40;100379.61;;;19.04;53.10
25510;BME280;13413;52.336;21.200;2023-05-23T06:04:32;100382.25;;;19.21;52.60
25510;BME280;13413;52.336;21.200;2023-05-23T06:07:24;100377.38;;;19.28;51.99
25510;BME280;13413;52.336;21.200;2023-05-23T06:10:16;100376.10;;;19.37;51.53
25510;BME280;13413;52.336;21.200;2023-05-23T06:13:09;100374.02;;;19.53;51.97
25510;BME280;13413;52.336;21.200;2023-05-23T06:16:01;100366.54;;;19.69;51.41
25510;BME280;13413;52.336;21.200;2023-05-23T06:24:01;100365.34;;;20.01;50.01
25510;BME280;13413;52.336;21.200;2023-05-23T06:26:53;100369.58;;;20.06;50.03
25510;BME280;13413;52.336;21.200;2023-05-23T06:29:45;100364.33;;;20.16;49.63
25510;BME280;13413;52.336;21.200;2023-05-23T06:32:38;100365.56;;;20.28;50.00
25510;BME280;13413;52.336;21.200;2023-05-23T06:38:25;100369.17;;;20.57;49.08
25510;BME280;13413;52.336;21.200;2023-05-23T06:41:18;100364.12;;;20.69;48.98
25510;BME280;13413;52.336;21.200;2023-05-23T06:44:10;100363.44;;;20.82;48.82
25510;BME280;13413;52.336;21.200;2023-05-23T06:47:02;100362.21;;;20.97;48.28
25510;BME280;13413;52.336;21.200;2023-05-23T06:49:55;100357.90;;;21.08;46.99
25510;BME280;13413;52.336;21.200;2023-05-23T06:52:47;100355.95;;;21.12;46.59
25510;BME280;13413;52.336;21.200;2023-05-23T06:55:39;100351.05;;;21.19;46.77
25510;BME280;13413;52.336;21.200;2023-05-23T06:58:31;100344.48;;;21.33;46.96
25510;BME280;13413;52.336;21.200;2023-05-23T07:01:23;100337.46;;;21.51;46.30
25510;BME280;13413;52.336;21.200;2023-05-23T07:04:15;100331.45;;;21.64;45.62
25510;BME280;13413;52.336;21.200;2023-05-23T07:07:08;100331.62;;;21.80;45.34
25510;BME280;13413;52.336;21.200;2023-05-23T07:10:00;100331.04;;;21.85;44.40
25510;BME280;13413;52.336;21.200;2023-05-23T07:12:53;100325.50;;;21.86;43.38
25510;BME280;13413;52.336;21.200;2023-05-23T07:15:44;100330.42;;;21.87;43.11
25510;BME280;13413;52.336;21.200;2023-05-23T07:18:36;100326.59;;;21.93;43.24
25510;BME280;13413;52.336;21.200;2023-05-23T07:21:28;100320.03;;;22.00;42.64
25510;BME280;13413;52.336;21.200;2023-05-23T07:24:21;100321.29;;;22.05;42.14
25510;BME280;13413;52.336;21.200;2023-05-23T07:27:14;100317.83;;;22.20;42.76
25510;BME280;13413;52.336;21.200;2023-05-23T07:30:08;100315.98;;;22.32;42.34
25510;BME280;13413;52.336;21.200;2023-05-23T07:33:00;100317.58;;;22.45;41.79
25510;BME280;13413;52.336;21.200;2023-05-23T07:35:52;100319.27;;;22.54;41.32
25510;BME280;13413;52.336;21.200;2023-05-23T07:38:45;100319.80;;;22.61;40.48
25510;BME280;13413;52.336;21.200;2023-05-23T07:41:38;100315.05;;;22.56;39.45
25510;BME280;13413;52.336;21.200;2023-05-23T07:44:30;100315.98;;;22.60;39.51
25510;BME280;13413;52.336;21.200;2023-05-23T07:47:23;100309.46;;;22.69;39.23
25510;BME280;13413;52.336;21.200;2023-05-23T07:50:15;100309.48;;;22.74;38.99
25510;BME280;13413;52.336;21.200;2023-05-23T07:53:08;100306.88;;;22.65;37.79
25510;BME280;13413;52.336;21.200;2023-05-23T07:56:01;100306.19;;;22.83;38.56
25510;BME280;13413;52.336;21.200;2023-05-23T07:58:54;100299.95;;;22.99;38.75
25510;BME280;13413;52.336;21.200;2023-05-23T08:04:39;100293.80;;;23.14;38.29
25510;BME280;13413;52.336;21.200;2023-05-23T08:07:31;100291.16;;;23.08;37.76
25510;BME280;13413;52.336;21.200;2023-05-23T08:10:24;100294.85;;;23.19;37.58
25510;BME280;13413;52.336;21.200;2023-05-23T08:13:16;100289.83;;;23.35;37.32
25510;BME280;13413;52.336;21.200;2023-05-23T08:16:07;100284.76;;;23.51;37.38
25510;BME280;13413;52.336;21.200;2023-05-23T08:19:00;100277.64;;;23.58;37.70
25510;BME280;13413;52.336;21.200;2023-05-23T08:21:52;100279.02;;;23.73;37.80
25510;BME280;13413;52.336;21.200;2023-05-23T08:24:44;100279.05;;;23.80;36.46
25510;BME280;13413;52.336;21.200;2023-05-23T08:27:35;100282.01;;;23.86;36.57
25510;BME280;13413;52.336;21.200;2023-05-23T08:30:27;100279.61;;;23.83;35.92
25510;BME280;13413;52.336;21.200;2023-05-23T08:33:20;100282.42;;;23.72;36.50
25510;BME280;13413;52.336;21.200;2023-05-23T08:36:12;100282.89;;;23.79;36.38
25510;BME280;13413;52.336;21.200;2023-05-23T08:44:11;100277.58;;;23.64;36.52
25510;BME280;13413;52.336;21.200;2023-05-23T08:47:03;100278.42;;;23.85;36.43
25510;BME280;13413;52.336;21.200;2023-05-23T08:49:56;100276.05;;;23.88;35.43
25510;BME280;13413;52.336;21.200;2023-05-23T08:52:52;100271.17;;;23.75;34.74
25510;BME280;13413;52.336;21.200;2023-05-23T08:55:46;100269.59;;;23.84;34.89
25510;BME280;13413;52.336;21.200;2023-05-23T08:58:39;100269.14;;;23.96;34.50
25510;BME280;13413;52.336;21.200;2023-05-23T09:01:32;100266.07;;;24.23;34.93
25510;BME280;13413;52.336;21.200;2023-05-23T09:04:25;100268.76;;;24.38;34.47
25510;BME280;13413;52.336;21.200;2023-05-23T09:07:17;100264.49;;;24.49;34.43
25510;BME280;13413;52.336;21.200;2023-05-23T09:10:10;100258.79;;;24.45;34.34
25510;BME280;13413;52.336;21.200;2023-05-23T09:13:04;100260.13;;;24.33;34.26
25510;BME280;13413;52.336;21.200;2023-05-23T09:15:57;100260.64;;;24.46;34.39
25510;BME280;13413;52.336;21.200;2023-05-23T09:18:51;100251.45;;;24.80;34.07
25510;BME280;13413;52.336;21.200;2023-05-23T09:21:44;100255.02;;;25.17;33.93
25510;BME280;13413;52.336;21.200;2023-05-23T09:24:37;100252.30;;;25.22;33.61
25510;BME280;13413;52.336;21.200;2023-05-23T09:27:29;100250.80;;;25.22;33.42
25510;BME280;13413;52.336;21.200;2023-05-23T09:30:22;100249.42;;;25.15;33.72
25510;BME280;13413;52.336;21.200;2023-05-23T09:33:15;100247.13;;;25.33;33.22
25510;BME280;13413;52.336;21.200;2023-05-23T09:36:08;100251.38;;;25.68;33.64
25510;BME280;13413;52.336;21.200;2023-05-23T09:39:02;100251.63;;;26.12;33.53
25510;BME280;13413;52.336;21.200;2023-05-23T09:42:16;100253.38;;;26.30;31.70
25510;BME280;13413;52.336;21.200;2023-05-23T09:45:10;100247.95;;;25.95;31.53
25510;BME280;13413;52.336;21.200;2023-05-23T09:48:03;100244.70;;;25.70;31.80
25510;BME280;13413;52.336;21.200;2023-05-23T09:50:55;100246.45;;;25.65;32.10
25510;BME280;13413;52.336;21.200;2023-05-23T09:53:47;100252.64;;;25.67;32.06
25510;BME280;13413;52.336;21.200;2023-05-23T09:56:40;100250.92;;;25.64;32.05
25510;BME280;13413;52.336;21.200;2023-05-23T09:59:33;100241.30;;;25.75;31.98
25510;BME280;13413;52.336;21.200;2023-05-23T10:02:34;100242.83;;;25.89;32.30
25510;BME280;13413;52.336;21.200;2023-05-23T10:05:34;100243.02;;;26.51;32.49
25510;BME280;13413;52.336;21.200;2023-05-23T10:08:29;100248.94;;;26.96;32.47
25510;BME280;13413;52.336;21.200;2023-05-23T10:14:28;100234.30;;;27.01;30.56
25510;BME280;13413;52.336;21.200;2023-05-23T10:17:24;100232.21;;;26.63;30.48
25510;BME280;13413;52.336;21.200;2023-05-23T10:20:19;100232.23;;;26.67;31.03
25510;BME280;13413;52.336;21.200;2023-05-23T10:23:12;100231.80;;;26.60;30.40
25510;BME280;13413;52.336;21.200;2023-05-23T10:26:05;100236.15;;;26.60;30.17
25510;BME280;13413;52.336;21.200;2023-05-23T10:28:57;100231.23;;;26.64;29.76
25510;BME280;13413;52.336;21.200;2023-05-23T10:31:49;100221.96;;;26.51;29.28
25510;BME280;13413;52.336;21.200;2023-05-23T10:34:43;100224.83;;;26.40;29.91
25510;BME280;13413;52.336;21.200;2023-05-23T10:37:41;100230.64;;;26.55;30.64
25510;BME280;13413;52.336;21.200;2023-05-23T10:43:46;100230.06;;;26.74;29.32
25510;BME280;13413;52.336;21.200;2023-05-23T10:46:53;100225.73;;;26.75;29.50
25510;BME280;13413;52.336;21.200;2023-05-23T10:49:45;100228.09;;;27.18;29.64
25510;BME280;13413;52.336;21.200;2023-05-23T10:52:42;100224.41;;;27.16;28.74
25510;BME280;13413;52.336;21.200;2023-05-23T10:55:35;100223.27;;;26.81;28.53
25510;BME280;13413;52.336;21.200;2023-05-23T11:03:54;100220.23;;;25.85;29.07
25510;BME280;13413;52.336;21.200;2023-05-23T11:06:46;100217.53;;;26.01;29.30
25510;BME280;13413;52.336;21.200;2023-05-23T11:09:38;100211.49;;;26.25;29.39
25510;BME280;13413;52.336;21.200;2023-05-23T11:12:51;100210.67;;;26.40;29.10
25510;BME280;13413;52.336;21.200;2023-05-23T11:15:56;100216.31;;;26.16;28.96
25510;BME280;13413;52.336;21.200;2023-05-23T11:18:49;100211.01;;;26.11;29.53
25510;BME280;13413;52.336;21.200;2023-05-23T11:21:42;100212.66;;;26.17;29.56
25510;BME280;13413;52.336;21.200;2023-05-23T11:24:49;100209.17;;;26.07;29.23
25510;BME280;13413;52.336;21.200;2023-05-23T11:27:43;100206.98;;;26.31;29.67
25510;BME280;13413;52.336;21.200;2023-05-23T11:30:36;100192.71;;;26.62;29.30
25510;BME280;13413;52.336;21.200;2023-05-23T11:33:28;100193.36;;;26.75;29.22
25510;BME280;13413;52.336;21.200;2023-05-23T11:36:21;100196.92;;;26.92;29.07
25510;BME280;13413;52.336;21.200;2023-05-23T11:39:13;100190.80;;;26.83;28.51
25510;BME280;13413;52.336;21.200;2023-05-23T11:42:06;100195.06;;;26.67;28.46
25510;BME280;13413;52.336;21.200;2023-05-23T11:44:58;100195.98;;;26.67;28.74
25510;BME280;13413;52.336;21.200;2023-05-23T11:47:50;100193.59;;;26.72;28.52
25510;BME280;13413;52.336;21.200;2023-05-23T11:50:47;100188.57;;;26.68;28.97
25510;BME280;13413;52.336;21.200;2023-05-23T11:53:39;100179.52;;;26.46;28.86
25510;BME280;13413;52.336;21.200;2023-05-23T11:56:32;100183.19;;;26.27;28.89
25510;BME280;13413;52.336;21.200;2023-05-23T11:59:29;100178.48;;;26.52;28.98
25510;BME280;13413;52.336;21.200;2023-05-23T12:02:22;100173.84;;;26.84;29.05
25510;BME280;13413;52.336;21.200;2023-05-23T12:05:15;100168.55;;;27.14;28.81
25510;BME280;13413;52.336;21.200;2023-05-23T12:08:08;100167.98;;;27.16;28.62
25510;BME280;13413;52.336;21.200;2023-05-23T12:11:02;100178.20;;;27.27;29.01
25510;BME280;13413;52.336;21.200;2023-05-23T12:13:55;100176.58;;;27.45;28.83
25510;BME280;13413;52.336;21.200;2023-05-23T12:16:47;100172.24;;;27.24;28.67
25510;BME280;13413;52.336;21.200;2023-05-23T12:19:44;100167.95;;;27.51;28.69
25510;BME280;13413;52.336;21.200;2023-05-23T12:22:36;100169.82;;;27.68;28.05
25510;BME280;13413;52.336;21.200;2023-05-23T12:25:29;100171.81;;;27.58;28.11
25510;BME280;13413;52.336;21.200;2023-05-23T12:28:35;100171.02;;;27.51;28.25
25510;BME280;13413;52.336;21.200;2023-05-23T12:31:28;100164.71;;;27.50;28.60
25510;BME280;13413;52.336;21.200;2023-05-23T12:34:20;100170.31;;;27.63;28.63
25510;BME280;13413;52.336;21.200;2023-05-23T12:37:13;100166.88;;;27.55;28.25
25510;BME280;13413;52.336;21.200;2023-05-23T12:40:13;100159.95;;;27.13;28.09
25510;BME280;13413;52.336;21.200;2023-05-23T12:43:07;100161.86;;;26.93;29.04
25510;BME280;13413;52.336;21.200;2023-05-23T12:46:00;100157.18;;;27.01;29.14
25510;BME280;13413;52.336;21.200;2023-05-23T12:48:53;100154.69;;;27.26;28.90
25510;BME280;13413;52.336;21.200;2023-05-23T12:51:45;100149.79;;;27.06;28.78
25510;BME280;13413;52.336;21.200;2023-05-23T12:54:40;100151.52;;;26.93;29.59
25510;BME280;13413;52.336;21.200;2023-05-23T12:57:33;100149.75;;;27.14;29.17
25510;BME280;13413;52.336;21.200;2023-05-23T13:00:26;100147.89;;;27.05;29.16
25510;BME280;13413;52.336;21.200;2023-05-23T13:03:18;100145.27;;;26.72;29.11
25510;BME280;13413;52.336;21.200;2023-05-23T13:06:11;100139.64;;;26.45;29.57
25510;BME280;13413;52.336;21.200;2023-05-23T13:09:03;100138.86;;;26.46;29.49
25510;BME280;13413;52.336;21.200;2023-05-23T13:11:56;100139.45;;;26.21;29.22
25510;BME280;13413;52.336;21.200;2023-05-23T13:14:49;100137.42;;;26.23;29.48
25510;BME280;13413;52.336;21.200;2023-05-23T13:23:14;100134.75;;;25.91;29.31
25510;BME280;13413;52.336;21.200;2023-05-23T14:02:25;100108.39;;;26.14;30.22
25510;BME280;13413;52.336;21.200;2023-05-23T14:05:19;100104.73;;;26.54;29.44
25510;BME280;13413;52.336;21.200;2023-05-23T14:08:13;100111.20;;;26.49;29.45
25510;BME280;13413;52.336;21.200;2023-05-23T14:11:07;100104.45;;;26.57;29.49
25510;BME280;13413;52.336;21.200;2023-05-23T14:14:01;100100.95;;;26.57;29.56
25510;BME280;13413;52.336;21.200;2023-05-23T14:16:55;100101.11;;;26.58;29.37
25510;BME280;13413;52.336;21.200;2023-05-23T14:19:51;100106.17;;;26.50;29.14
25510;BME280;13413;52.336;21.200;2023-05-23T14:22:45;100109.55;;;26.51;29.55
25510;BME280;13413;52.336;21.200;2023-05-23T14:25:39;100103.61;;;26.63;29.80
25510;BME280;13413;52.336;21.200;2023-05-23T14:28:33;100091.06;;;26.61;29.55
25510;BME280;13413;52.336;21.200;2023-05-23T14:31:27;100099.19;;;26.35;29.83
25510;BME280;13413;52.336;21.200;2023-05-23T14:34:24;100096.44;;;26.09;30.25
25510;BME280;13413;52.336;21.200;2023-05-23T14:37:18;100093.04;;;25.94;30.61
25510;BME280;13413;52.336;21.200;2023-05-23T14:40:12;100094.15;;;25.96;30.72
25510;BME280;13413;52.336;21.200;2023-05-23T14:43:06;100093.10;;;25.98;30.69
25510;BME280;13413;52.336;21.200;2023-05-23T14:46:01;100090.29;;;25.98;30.25
25510;BME280;13413;52.336;21.200;2023-05-23T14:48:55;100087.52;;;25.98;30.64
25510;BME280;13413;52.336;21.200;2023-05-23T14:51:49;100086.64;;;26.05;30.42
25510;BME280;13413;52.336;21.200;2023-05-23T14:54:42;100083.04;;;26.00;30.34
25510;BME280;13413;52.336;21.200;2023-05-23T14:57:37;100083.37;;;25.99;30.07
25510;BME280;13413;52.336;21.200;2023-05-23T15:00:31;100082.09;;;25.95;30.35
25510;BME280;13413;52.336;21.200;2023-05-23T15:03:25;100086.20;;;25.83;30.17
25510;BME280;13413;52.336;21.200;2023-05-23T15:06:19;100086.48;;;25.66;30.47
25510;BME280;13413;52.336;21.200;2023-05-23T15:09:13;100085.17;;;25.57;30.32
25510;BME280;13413;52.336;21.200;2023-05-23T15:12:07;100086.41;;;25.43;30.55
25510;BME280;13413;52.336;21.200;2023-05-23T15:15:02;100080.67;;;25.41;30.72
25510;BME280;13413;52.336;21.200;2023-05-23T15:17:57;100077.42;;;25.51;30.83
25510;BME280;13413;52.336;21.200;2023-05-23T15:20:51;100070.77;;;25.57;30.56
25510;BME280;13413;52.336;21.200;2023-05-23T15:23:45;100067.24;;;25.57;30.46
25510;BME280;13413;52.336;21.200;2023-05-23T15:26:39;100064.20;;;25.57;30.36
25510;BME280;13413;52.336;21.200;2023-05-23T15:29:35;100066.94;;;25.50;30.64
25510;BME280;13413;52.336;21.200;2023-05-23T15:32:29;100065.71;;;25.46;30.51
25510;BME280;13413;52.336;21.200;2023-05-23T15:35:23;100065.20;;;25.40;30.64
25510;BME280;13413;52.336;21.200;2023-05-23T15:38:17;100059.34;;;25.30;30.78
25510;BME280;13413;52.336;21.200;2023-05-23T15:41:11;100065.27;;;25.26;31.16
25510;BME280;13413;52.336;21.200;2023-05-23T15:44:06;100065.24;;;25.31;31.39
25510;BME280;13413;52.336;21.200;2023-05-23T15:47:00;100067.77;;;25.36;31.35
25510;BME280;13413;52.336;21.200;2023-05-23T15:49:54;100061.12;;;25.39;31.53
25510;BME280;13413;52.336;21.200;2023-05-23T15:52:48;100062.45;;;25.37;31.37
25510;BME280;13413;52.336;21.200;2023-05-23T15:55:42;100058.36;;;25.27;31.11
25510;BME280;13413;52.336;21.200;2023-05-23T16:01:30;100059.39;;;25.41;31.42
25510;BME280;13413;52.336;21.200;2023-05-23T16:04:24;100057.67;;;25.46;30.98
25510;BME280;13413;52.336;21.200;2023-05-23T16:07:18;100056.73;;;25.48;30.90
25510;BME280;13413;52.336;21.200;2023-05-23T16:10:12;100048.73;;;25.57;31.19
25510;BME280;13413;52.336;21.200;2023-05-23T16:13:06;100049.15;;;25.59;31.19
25510;BME280;13413;52.336;21.200;2023-05-23T16:18:54;100045.53;;;25.63;31.09
25510;BME280;13413;52.336;21.200;2023-05-23T16:21:47;100043.58;;;25.61;31.11
25510;BME280;13413;52.336;21.200;2023-05-23T16:27:36;100043.40;;;25.66;31.34
25510;BME280;13413;52.336;21.200;2023-05-23T16:30:30;100043.33;;;25.74;31.40
25510;BME280;13413;52.336;21.200;2023-05-23T16:33:23;100040.55;;;25.82;31.29